sensor_id;sensor_type;location;lat;lon;timestamp;pressure;altitude;pressure_sealevel;temperature;humidity
47522;BME280;32291;52.010;4.446;2023-05-19T00:00:51;79797.25;;;-144.67;100.00
47522;BME280;32291;52.010;4.446;2023-05-19T00:01:54;79799.41;;;-144.67;100.00
47522;BME280;32291;52.010;4.446;2023-05-19T00:02:56;79803.69;;;-144.67;100.00
47522;BME280;32291;52.010;4.446;2023-05-19T00:03:59;79803.69;;;-144.67;100.00
47522;BME280;32291;52.010;4.446;2023-05-19T00:05:04;79810.09;;;-144.67;100.00
47522;BME280;32291;52.010;4.446;2023-05-19T00:06:07;79807.97;;;-144.67;100.00
47522;BME280;32291;52.010;4.446;2023-05-19T00:07:10;79812.25;;;-144.67;100.00
47522;BME280;32291;52.010;4.446;2023-05-19T00:08:17;79803.69;;;-144.67;100.00
47522;BME280;32291;52.010;4.446;2023-05-19T00:09:19;79803.69;;;-144.67;100.00
47522;BME280;32291;52.010;4.446;2023-05-19T00:10:21;79805.81;;;-144.67;100.00
47522;BME280;32291;52.010;4.446;2023-05-19T00:11:24;79803.69;;;-144.67;100.00
47522;BME280;32291;52.010;4.446;2023-05-19T00:12:28;79797.25;;;-144.67;100.00
47522;BME280;32291;52.010;4.446;2023-05-19T00:13:30;79805.81;;;-144.67;100.00
47522;BME280;32291;52.010;4.446;2023-05-19T00:14:32;79803.69;;;-144.67;100.00
47522;BME280;32291;52.010;4.446;2023-05-19T00:15:34;79807.97;;;-144.67;100.00
47522;BME280;32291;52.010;4.446;2023-05-19T00:16:37;79803.69;;;-144.67;100.00
47522;BME280;32291;52.010;4.446;2023-05-19T00:17:39;79816.53;;;-144.67;100.00
47522;BME280;32291;52.010;4.446;2023-05-19T00:18:43;79803.69;;;-144.67;100.00
47522;BME280;32291;52.010;4.446;2023-05-19T00:19:44;79812.25;;;-144.67;100.00
47522;BME280;32291;52.010;4.446;2023-05-19T00:20:47;79812.25;;;-144.67;100.00
47522;BME280;32291;52.010;4.446;2023-05-19T00:21:49;79812.25;;;-144.67;100.00
47522;BME280;32291;52.010;4.446;2023-05-19T00:22:51;79816.53;;;-144.67;100.00
47522;BME280;32291;52.010;4.446;2023-05-19T00:23:54;79816.53;;;-144.67;100.00
47522;BME280;32291;52.010;4.446;2023-05-19T00:24:56;79814.38;;;-144.67;100.00
47522;BME280;32291;52.010;4.446;2023-05-19T00:25:57;79814.38;;;-144.67;100.00
47522;BME280;32291;52.010;4.446;2023-05-19T00:26:59;79816.53;;;-144.67;100.00
47522;BME280;32291;52.010;4.446;2023-05-19T00:28:01;79820.81;;;-144.67;100.00
47522;BME280;32291;52.010;4.446;2023-05-19T00:29:03;79820.81;;;-144.67;100.00
47522;BME280;32291;52.010;4.446;2023-05-19T00:30:06;79825.09;;;-144.67;100.00
47522;BME280;32291;52.010;4.446;2023-05-19T00:31:08;79827.25;;;-144.67;100.00
47522;BME280;32291;52.010;4.446;2023-05-19T00:32:10;79829.38;;;-144.67;100.00
47522;BME280;32291;52.010;4.446;2023-05-19T00:33:11;79835.81;;;-144.67;100.00
47522;BME280;32291;52.010;4.446;2023-05-19T00:34:13;79831.53;;;-144.67;100.00
47522;BME280;32291;52.010;4.446;2023-05-19T00:35:15;79837.94;;;-144.67;100.00
47522;BME280;32291;52.010;4.446;2023-05-19T00:36:17;79842.22;;;-144.67;100.00
47522;BME280;32291;52.010;4.446;2023-05-19T00:37:19;79840.09;;;-144.67;100.00
47522;BME280;32291;52.010;4.446;2023-05-19T00:38:21;79848.66;;;-144.67;100.00
47522;BME280;32291;52.010;4.446;2023-05-19T00:39:22;79857.22;;;-144.67;100.00
47522;BME280;32291;52.010;4.446;2023-05-19T00:40:24;79859.38;;;-144.67;100.00
47522;BME280;32291;52.010;4.446;2023-05-19T00:41:27;79861.50;;;-144.67;100.00
47522;BME280;32291;52.010;4.446;2023-05-19T00:42:30;79857.22;;;-144.67;100.00
47522;BME280;32291;52.010;4.446;2023-05-19T00:43:33;79865.78;;;-144.67;100.00
47522;BME280;32291;52.010;4.446;2023-05-19T00:44:40;79870.06;;;-144.67;100.00
47522;BME280;32291;52.010;4.446;2023-05-19T00:45:42;79870.06;;;-144.67;100.00
47522;BME280;32291;52.010;4.446;2023-05-19T00:46:43;79876.50;;;-144.67;100.00
47522;BME280;32291;52.010;4.446;2023-05-19T00:47:45;79872.22;;;-144.67;100.00
47522;BME280;32291;52.010;4.446;2023-05-19T00:48:47;79872.22;;;-144.67;100.00
47522;BME280;32291;52.010;4.446;2023-05-19T00:49:49;79874.38;;;-144.67;100.00
47522;BME280;32291;52.010;4.446;2023-05-19T00:50:54;79882.94;;;-144.67;100.00
47522;BME280;32291;52.010;4.446;2023-05-19T00:51:57;79880.78;;;-144.67;100.00
47522;BME280;32291;52.010;4.446;2023-05-19T00:52:59;79880.78;;;-144.67;100.00
47522;BME280;32291;52.010;4.446;2023-05-19T00:54:02;79880.78;;;-144.67;100.00
47522;BME280;32291;52.010;4.446;2023-05-19T00:55:05;79880.78;;;-144.67;100.00
47522;BME280;32291;52.010;4.446;2023-05-19T00:56:08;79885.06;;;-144.67;100.00
47522;BME280;32291;52.010;4.446;2023-05-19T00:57:11;79880.78;;;-144.67;100.00
47522;BME280;32291;52.010;4.446;2023-05-19T00:58:14;79878.66;;;-144.67;100.00
47522;BME280;32291;52.010;4.446;2023-05-19T00:59:17;79882.94;;;-144.67;100.00
47522;BME280;32291;52.010;4.446;2023-05-19T01:00:19;79880.78;;;-144.67;100.00
47522;BME280;32291;52.010;4.446;2023-05-19T01:01:21;79887.22;;;-144.67;100.00
47522;BME280;32291;52.010;4.446;2023-05-19T01:02:23;79874.38;;;-144.67;100.00
47522;BME280;32291;52.010;4.446;2023-05-19T01:03:25;79878.66;;;-144.67;100.00
47522;BME280;32291;52.010;4.446;2023-05-19T01:04:27;79870.06;;;-144.67;100.00
47522;BME280;32291;52.010;4.446;2023-05-19T01:05:30;79878.66;;;-144.67;100.00
47522;BME280;32291;52.010;4.446;2023-05-19T01:06:33;79876.50;;;-144.67;100.00
47522;BME280;32291;52.010;4.446;2023-05-19T01:07:35;79880.78;;;-144.67;100.00
47522;BME280;32291;52.010;4.446;2023-05-19T01:08:38;79872.22;;;-144.67;100.00
47522;BME280;32291;52.010;4.446;2023-05-19T01:09:40;79872.22;;;-144.67;100.00
47522;BME280;32291;52.010;4.446;2023-05-19T01:10:42;79870.06;;;-144.67;100.00
47522;BME280;32291;52.010;4.446;2023-05-19T01:11:44;79867.94;;;-144.67;100.00
47522;BME280;32291;52.010;4.446;2023-05-19T01:12:46;79870.06;;;-144.67;100.00
47522;BME280;32291;52.010;4.446;2023-05-19T01:13:48;79874.38;;;-144.67;100.00
47522;BME280;32291;52.010;4.446;2023-05-19T01:14:50;79876.50;;;-144.67;100.00
47522;BME280;32291;52.010;4.446;2023-05-19T01:16:23;79874.38;;;-144.67;100.00
47522;BME280;32291;52.010;4.446;2023-05-19T01:17:47;79880.78;;;-144.67;100.00
47522;BME280;32291;52.010;4.446;2023-05-19T01:20:38;79876.50;;;-144.67;100.00
47522;BME280;32291;52.010;4.446;2023-05-19T01:23:53;79876.50;;;-144.67;100.00
47522;BME280;32291;52.010;4.446;2023-05-19T01:27:30;79889.34;;;-144.67;100.00
47522;BME280;32291;52.010;4.446;2023-05-19T01:31:26;79889.34;;;-144.67;100.00
47522;BME280;32291;52.010;4.446;2023-05-19T01:32:30;79893.66;;;-144.67;100.00
47522;BME280;32291;52.010;4.446;2023-05-19T01:33:34;79893.66;;;-144.67;100.00
47522;BME280;32291;52.010;4.446;2023-05-19T01:34:43;79889.34;;;-144.67;100.00
47522;BME280;32291;52.010;4.446;2023-05-19T01:35:47;79893.66;;;-144.67;100.00
47522;BME280;32291;52.010;4.446;2023-05-19T01:36:51;79885.06;;;-144.67;100.00
47522;BME280;32291;52.010;4.446;2023-05-19T01:37:58;79885.06;;;-144.67;100.00
47522;BME280;32291;52.010;4.446;2023-05-19T01:39:02;79889.34;;;-144.67;100.00
47522;BME280;32291;52.010;4.446;2023-05-19T01:40:07;79887.22;;;-144.67;100.00
47522;BME280;32291;52.010;4.446;2023-05-19T01:41:10;79885.06;;;-144.67;100.00
47522;BME280;32291;52.010;4.446;2023-05-19T01:42:14;79880.78;;;-144.67;100.00
47522;BME280;32291;52.010;4.446;2023-05-19T01:43:25;79876.50;;;-144.67;100.00
47522;BME280;32291;52.010;4.446;2023-05-19T01:44:28;79880.78;;;-144.67;100.00
47522;BME280;32291;52.010;4.446;2023-05-19T01:45:32;79878.66;;;-144.67;100.00
47522;BME280;32291;52.010;4.446;2023-05-19T01:46:36;79887.22;;;-144.67;100.00
47522;BME280;32291;52.010;4.446;2023-05-19T01:47:43;79887.22;;;-144.67;100.00
47522;BME280;32291;52.010;4.446;2023-05-19T01:48:46;79885.06;;;-144.67;100.00
47522;BME280;32291;52.010;4.446;2023-05-19T01:49:47;79882.94;;;-144.67;100.00
47522;BME280;32291;52.010;4.446;2023-05-19T01:50:50;79880.78;;;-144.67;100.00
47522;BME280;32291;52.010;4.446;2023-05-19T01:51:52;79893.66;;;-144.67;100.00
47522;BME280;32291;52.010;4.446;2023-05-19T01:52:54;79893.66;;;-144.67;100.00
47522;BME280;32291;52.010;4.446;2023-05-19T01:53:56;79893.66;;;-144.67;100.00
47522;BME280;32291;52.010;4.446;2023-05-19T01:54:58;79895.78;;;-144.67;100.00
47522;BME280;32291;52.010;4.446;2023-05-19T01:56:00;79902.22;;;-144.67;100.00
47522;BME280;32291;52.010;4.446;2023-05-19T01:57:15;79897.94;;;-144.67;100.00
47522;BME280;32291;52.010;4.446;2023-05-19T02:01:36;79902.22;;;-144.67;100.00
47522;BME280;32291;52.010;4.446;2023-05-19T02:04:28;79910.78;;;-144.67;100.00
47522;BME280;32291;52.010;4.446;2023-05-19T02:06:02;79910.78;;;-144.67;100.00
47522;BME280;32291;52.010;4.446;2023-05-19T02:07:25;79919.34;;;-144.67;100.00
47522;BME280;32291;52.010;4.446;2023-05-19T02:08:43;79923.63;;;-144.67;100.00
47522;BME280;32291;52.010;4.446;2023-05-19T02:10:04;79923.63;;;-144.67;100.00
47522;BME280;32291;52.010;4.446;2023-05-19T02:11:21;79927.91;;;-144.67;100.00
47522;BME280;32291;52.010;4.446;2023-05-19T02:12:31;79936.47;;;-144.67;100.00
47522;BME280;32291;52.010;4.446;2023-05-19T02:13:42;79936.47;;;-144.67;100.00
47522;BME280;32291;52.010;4.446;2023-05-19T02:14:57;79940.75;;;-144.67;100.00
47522;BME280;32291;52.010;4.446;2023-05-19T02:16:04;79940.75;;;-144.67;100.00
47522;BME280;32291;52.010;4.446;2023-05-19T02:17:07;79945.06;;;-144.67;100.00
47522;BME280;32291;52.010;4.446;2023-05-19T02:18:12;79947.19;;;-144.67;100.00
47522;BME280;32291;52.010;4.446;2023-05-19T02:19:23;79945.06;;;-144.67;100.00
47522;BME280;32291;52.010;4.446;2023-05-19T02:20:25;79949.34;;;-144.67;100.00
47522;BME280;32291;52.010;4.446;2023-05-19T02:21:27;79947.19;;;-144.67;100.00
47522;BME280;32291;52.010;4.446;2023-05-19T02:22:29;79949.34;;;-144.67;100.00
47522;BME280;32291;52.010;4.446;2023-05-19T02:23:31;79953.63;;;-144.67;100.00
47522;BME280;32291;52.010;4.446;2023-05-19T02:24:33;79955.75;;;-144.67;100.00
47522;BME280;32291;52.010;4.446;2023-05-19T02:25:34;79962.19;;;-144.67;100.00
47522;BME280;32291;52.010;4.446;2023-05-19T02:26:36;79966.47;;;-144.67;100.00
47522;BME280;32291;52.010;4.446;2023-05-19T02:27:38;79972.91;;;-144.67;100.00
47522;BME280;32291;52.010;4.446;2023-05-19T02:28:40;79970.75;;;-144.67;100.00
47522;BME280;32291;52.010;4.446;2023-05-19T02:29:42;79970.75;;;-144.67;100.00
47522;BME280;32291;52.010;4.446;2023-05-19T02:30:44;79966.47;;;-144.67;100.00
47522;BME280;32291;52.010;4.446;2023-05-19T02:31:46;79968.63;;;-144.67;100.00
47522;BME280;32291;52.010;4.446;2023-05-19T02:32:48;79966.47;;;-144.67;100.00
47522;BME280;32291;52.010;4.446;2023-05-19T02:33:50;79970.75;;;-144.67;100.00
47522;BME280;32291;52.010;4.446;2023-05-19T02:34:51;79966.47;;;-144.67;100.00
47522;BME280;32291;52.010;4.446;2023-05-19T02:35:54;79975.03;;;-144.67;100.00
47522;BME280;32291;52.010;4.446;2023-05-19T02:36:56;79972.91;;;-144.67;100.00
47522;BME280;32291;52.010;4.446;2023-05-19T02:37:58;79979.31;;;-144.67;100.00
47522;BME280;32291;52.010;4.446;2023-05-19T02:39:00;79977.19;;;-144.67;100.00
47522;BME280;32291;52.010;4.446;2023-05-19T02:40:05;79975.03;;;-144.67;100.00
47522;BME280;32291;52.010;4.446;2023-05-19T02:41:07;79979.31;;;-144.67;100.00
47522;BME280;32291;52.010;4.446;2023-05-19T02:42:09;79975.03;;;-144.67;100.00
47522;BME280;32291;52.010;4.446;2023-05-19T02:43:11;79979.31;;;-144.67;100.00
47522;BME280;32291;52.010;4.446;2023-05-19T02:44:13;79979.31;;;-144.67;100.00
47522;BME280;32291;52.010;4.446;2023-05-19T02:45:15;79979.31;;;-144.67;100.00
47522;BME280;32291;52.010;4.446;2023-05-19T02:46:17;79975.03;;;-144.67;100.00
47522;BME280;32291;52.010;4.446;2023-05-19T02:47:19;79979.31;;;-144.67;100.00
47522;BME280;32291;52.010;4.446;2023-05-19T02:48:21;79975.03;;;-144.67;100.00
47522;BME280;32291;52.010;4.446;2023-05-19T02:49:22;79975.03;;;-144.67;100.00
47522;BME280;32291;52.010;4.446;2023-05-19T02:50:24;79970.75;;;-144.67;100.00
47522;BME280;32291;52.010;4.446;2023-05-19T02:51:25;79970.75;;;-144.67;100.00
47522;BME280;32291;52.010;4.446;2023-05-19T02:52:27;79966.47;;;-144.67;100.00
47522;BME280;32291;52.010;4.446;2023-05-19T02:53:31;79966.47;;;-144.67;100.00
47522;BME280;32291;52.010;4.446;2023-05-19T02:54:33;79975.03;;;-144.67;100.00
47522;BME280;32291;52.010;4.446;2023-05-19T02:55:35;79966.47;;;-144.67;100.00
47522;BME280;32291;52.010;4.446;2023-05-19T02:56:36;79975.03;;;-144.67;100.00
47522;BME280;32291;52.010;4.446;2023-05-19T02:57:38;79970.75;;;-144.67;100.00
47522;BME280;32291;52.010;4.446;2023-05-19T02:58:40;79968.63;;;-144.67;100.00
47522;BME280;32291;52.010;4.446;2023-05-19T02:59:43;79962.19;;;-144.67;100.00
47522;BME280;32291;52.010;4.446;2023-05-19T03:00:45;79966.47;;;-144.67;100.00
47522;BME280;32291;52.010;4.446;2023-05-19T03:01:47;79962.19;;;-144.67;100.00
47522;BME280;32291;52.010;4.446;2023-05-19T03:02:49;79962.19;;;-144.67;100.00
47522;BME280;32291;52.010;4.446;2023-05-19T03:03:53;79960.03;;;-144.67;100.00
47522;BME280;32291;52.010;4.446;2023-05-19T03:04:55;79962.19;;;-144.67;100.00
47522;BME280;32291;52.010;4.446;2023-05-19T03:05:58;79964.31;;;-144.67;100.00
47522;BME280;32291;52.010;4.446;2023-05-19T03:07:00;79964.31;;;-144.67;100.00
47522;BME280;32291;52.010;4.446;2023-05-19T03:08:02;79972.91;;;-144.67;100.00
47522;BME280;32291;52.010;4.446;2023-05-19T03:09:04;79975.03;;;-144.67;100.00
47522;BME280;32291;52.010;4.446;2023-05-19T03:10:07;79983.59;;;-144.67;100.00
47522;BME280;32291;52.010;4.446;2023-05-19T03:11:08;79983.59;;;-144.67;100.00
47522;BME280;32291;52.010;4.446;2023-05-19T03:12:10;79981.47;;;-144.67;100.00
47522;BME280;32291;52.010;4.446;2023-05-19T03:13:12;79987.88;;;-144.67;100.00
47522;BME280;32291;52.010;4.446;2023-05-19T03:14:14;79985.75;;;-144.67;100.00
47522;BME280;32291;52.010;4.446;2023-05-19T03:15:16;79987.88;;;-144.67;100.00
47522;BME280;32291;52.010;4.446;2023-05-19T03:16:18;79987.88;;;-144.67;100.00
47522;BME280;32291;52.010;4.446;2023-05-19T03:17:20;79992.16;;;-144.67;100.00
47522;BME280;32291;52.010;4.446;2023-05-19T03:18:22;79994.31;;;-144.67;100.00
47522;BME280;32291;52.010;4.446;2023-05-19T03:19:25;79996.47;;;-144.67;100.00
47522;BME280;32291;52.010;4.446;2023-05-19T03:20:28;79987.88;;;-144.67;100.00
47522;BME280;32291;52.010;4.446;2023-05-19T03:21:30;79996.47;;;-144.67;100.00
47522;BME280;32291;52.010;4.446;2023-05-19T03:22:32;79996.47;;;-144.67;100.00
47522;BME280;32291;52.010;4.446;2023-05-19T03:23:34;79998.59;;;-144.67;100.00
47522;BME280;32291;52.010;4.446;2023-05-19T03:24:36;79998.59;;;-144.67;100.00
47522;BME280;32291;52.010;4.446;2023-05-19T03:25:38;79994.31;;;-144.67;100.00
47522;BME280;32291;52.010;4.446;2023-05-19T03:26:39;79992.16;;;-144.67;100.00
47522;BME280;32291;52.010;4.446;2023-05-19T03:27:45;79992.16;;;-144.67;100.00
47522;BME280;32291;52.010;4.446;2023-05-19T03:28:47;79987.88;;;-144.67;100.00
47522;BME280;32291;52.010;4.446;2023-05-19T03:29:48;79985.75;;;-144.67;100.00
47522;BME280;32291;52.010;4.446;2023-05-19T03:30:51;79983.59;;;-144.67;100.00
47522;BME280;32291;52.010;4.446;2023-05-19T03:31:52;79994.31;;;-144.67;100.00
47522;BME280;32291;52.010;4.446;2023-05-19T03:32:54;79992.16;;;-144.67;100.00
47522;BME280;32291;52.010;4.446;2023-05-19T03:33:56;79994.31;;;-144.67;100.00
47522;BME280;32291;52.010;4.446;2023-05-19T03:34:58;79996.47;;;-144.67;100.00
47522;BME280;32291;52.010;4.446;2023-05-19T03:35:59;79994.31;;;-144.67;100.00
47522;BME280;32291;52.010;4.446;2023-05-19T03:37:01;79992.16;;;-144.67;100.00
47522;BME280;32291;52.010;4.446;2023-05-19T03:38:02;79987.88;;;-144.67;100.00
47522;BME280;32291;52.010;4.446;2023-05-19T03:39:05;79987.88;;;-144.67;100.00
47522;BME280;32291;52.010;4.446;2023-05-19T03:40:08;79983.59;;;-144.67;100.00
47522;BME280;32291;52.010;4.446;2023-05-19T03:41:11;79981.47;;;-144.67;100.00
47522;BME280;32291;52.010;4.446;2023-05-19T03:42:13;79987.88;;;-144.67;100.00
47522;BME280;32291;52.010;4.446;2023-05-19T03:43:15;79979.31;;;-144.67;100.00
47522;BME280;32291;52.010;4.446;2023-05-19T03:44:16;79990.03;;;-144.67;100.00
47522;BME280;32291;52.010;4.446;2023-05-19T03:45:18;79996.47;;;-144.67;100.00
47522;BME280;32291;52.010;4.446;2023-05-19T03:46:19;79992.16;;;-144.67;100.00
47522;BME280;32291;52.010;4.446;2023-05-19T03:47:21;79992.16;;;-144.67;100.00
47522;BME280;32291;52.010;4.446;2023-05-19T03:48:23;79996.47;;;-144.67;100.00
47522;BME280;32291;52.010;4.446;2023-05-19T03:49:25;79996.47;;;-144.67;100.00
47522;BME280;32291;52.010;4.446;2023-05-19T03:50:26;79992.16;;;-144.67;100.00
47522;BME280;32291;52.010;4.446;2023-05-19T03:51:29;79994.31;;;-144.67;100.00
47522;BME280;32291;52.010;4.446;2023-05-19T03:52:30;79987.88;;;-144.67;100.00
47522;BME280;32291;52.010;4.446;2023-05-19T03:53:32;79998.59;;;-144.67;100.00
47522;BME280;32291;52.010;4.446;2023-05-19T03:54:34;80000.75;;;-144.67;100.00
47522;BME280;32291;52.010;4.446;2023-05-19T03:55:36;79998.59;;;-144.67;100.00
47522;BME280;32291;52.010;4.446;2023-05-19T03:56:38;79996.47;;;-144.67;100.00
47522;BME280;32291;52.010;4.446;2023-05-19T03:57:41;79994.31;;;-144.67;100.00
47522;BME280;32291;52.010;4.446;2023-05-19T03:58:46;79996.47;;;-144.67;100.00
47522;BME280;32291;52.010;4.446;2023-05-19T03:59:50;79987.88;;;-144.67;100.00
47522;BME280;32291;52.010;4.446;2023-05-19T04:00:52;79983.59;;;-144.67;100.00
47522;BME280;32291;52.010;4.446;2023-05-19T04:01:54;79979.31;;;-144.67;100.00
47522;BME280;32291;52.010;4.446;2023-05-19T04:02:57;79983.59;;;-144.67;100.00
47522;BME280;32291;52.010;4.446;2023-05-19T04:04:01;79979.31;;;-144.67;100.00
47522;BME280;32291;52.010;4.446;2023-05-19T04:05:03;79985.75;;;-144.67;100.00
47522;BME280;32291;52.010;4.446;2023-05-19T04:06:06;79987.88;;;-144.67;100.00
47522;BME280;32291;52.010;4.446;2023-05-19T04:07:08;79979.31;;;-144.67;100.00
47522;BME280;32291;52.010;4.446;2023-05-19T04:08:10;79983.59;;;-144.67;100.00
47522;BME280;32291;52.010;4.446;2023-05-19T04:09:14;79983.59;;;-144.67;100.00
47522;BME280;32291;52.010;4.446;2023-05-19T04:10:17;79987.88;;;-144.67;100.00
47522;BME280;32291;52.010;4.446;2023-05-19T04:11:20;79977.19;;;-144.67;100.00
47522;BME280;32291;52.010;4.446;2023-05-19T04:12:22;79983.59;;;-144.67;100.00
47522;BME280;32291;52.010;4.446;2023-05-19T04:13:24;79983.59;;;-144.67;100.00
47522;BME280;32291;52.010;4.446;2023-05-19T04:14:26;79985.75;;;-144.67;100.00
47522;BME280;32291;52.010;4.446;2023-05-19T04:15:28;79983.59;;;-144.67;100.00
47522;BME280;32291;52.010;4.446;2023-05-19T04:16:31;79979.31;;;-144.67;100.00
47522;BME280;32291;52.010;4.446;2023-05-19T04:17:33;79987.88;;;-144.67;100.00
47522;BME280;32291;52.010;4.446;2023-05-19T04:18:34;79983.59;;;-144.67;100.00
47522;BME280;32291;52.010;4.446;2023-05-19T04:19:36;79979.31;;;-144.67;100.00
47522;BME280;32291;52.010;4.446;2023-05-19T04:20:37;79979.31;;;-144.67;100.00
47522;BME280;32291;52.010;4.446;2023-05-19T04:21:39;79975.03;;;-144.67;100.00
47522;BME280;32291;52.010;4.446;2023-05-19T04:22:41;79975.03;;;-144.67;100.00
47522;BME280;32291;52.010;4.446;2023-05-19T04:23:43;79975.03;;;-144.67;100.00
47522;BME280;32291;52.010;4.446;2023-05-19T04:24:45;79975.03;;;-144.67;100.00
47522;BME280;32291;52.010;4.446;2023-05-19T04:25:48;79962.19;;;-144.67;100.00
47522;BME280;32291;52.010;4.446;2023-05-19T04:26:51;79957.91;;;-144.67;100.00
47522;BME280;32291;52.010;4.446;2023-05-19T04:27:53;79957.91;;;-144.67;100.00
47522;BME280;32291;52.010;4.446;2023-05-19T04:28:57;79951.47;;;-144.67;100.00
47522;BME280;32291;52.010;4.446;2023-05-19T04:29:59;79938.63;;;-144.67;100.00
47522;BME280;32291;52.010;4.446;2023-05-19T04:31:00;79934.34;;;-144.67;100.00
47522;BME280;32291;52.010;4.446;2023-05-19T04:32:04;79932.19;;;-144.67;100.00
47522;BME280;32291;52.010;4.446;2023-05-19T04:33:08;79932.19;;;-144.67;100.00
47522;BME280;32291;52.010;4.446;2023-05-19T04:34:10;79927.91;;;-144.67;100.00
47522;BME280;32291;52.010;4.446;2023-05-19T04:35:11;79919.34;;;-144.67;100.00
47522;BME280;32291;52.010;4.446;2023-05-19T04:36:13;79915.06;;;-144.67;100.00
47522;BME280;32291;52.010;4.446;2023-05-19T04:37:18;79912.91;;;-144.67;100.00
47522;BME280;32291;52.010;4.446;2023-05-19T04:38:20;79910.78;;;-144.67;100.00
47522;BME280;32291;52.010;4.446;2023-05-19T04:39:22;79906.50;;;-144.67;100.00
47522;BME280;32291;52.010;4.446;2023-05-19T04:40:24;79893.66;;;-144.67;100.00
47522;BME280;32291;52.010;4.446;2023-05-19T04:41:25;79893.66;;;-144.67;100.00
47522;BME280;32291;52.010;4.446;2023-05-19T04:42:27;79893.66;;;-144.67;100.00
47522;BME280;32291;52.010;4.446;2023-05-19T04:43:31;79885.06;;;-144.67;100.00
47522;BME280;32291;52.010;4.446;2023-05-19T04:44:32;79885.06;;;-144.67;100.00
47522;BME280;32291;52.010;4.446;2023-05-19T04:45:34;79878.66;;;-144.67;100.00
47522;BME280;32291;52.010;4.446;2023-05-19T04:46:37;79880.78;;;-144.67;100.00
47522;BME280;32291;52.010;4.446;2023-05-19T04:47:40;79874.38;;;-144.67;100.00
47522;BME280;32291;52.010;4.446;2023-05-19T04:48:42;79867.94;;;-144.67;100.00
47522;BME280;32291;52.010;4.446;2023-05-19T04:49:44;79867.94;;;-144.67;100.00
47522;BME280;32291;52.010;4.446;2023-05-19T04:50:46;79867.94;;;-144.67;100.00
47522;BME280;32291;52.010;4.446;2023-05-19T04:51:49;79867.94;;;-144.67;100.00
47522;BME280;32291;52.010;4.446;2023-05-19T04:52:52;79859.38;;;-144.67;100.00
47522;BME280;32291;52.010;4.446;2023-05-19T04:53:54;79850.81;;;-144.67;100.00
47522;BME280;32291;52.010;4.446;2023-05-19T04:54:56;79855.09;;;-144.67;100.00
47522;BME280;32291;52.010;4.446;2023-05-19T04:55:58;79850.81;;;-144.67;100.00
47522;BME280;32291;52.010;4.446;2023-05-19T04:57:04;79852.94;;;-144.67;100.00
47522;BME280;32291;52.010;4.446;2023-05-19T04:58:06;79840.09;;;-144.67;100.00
47522;BME280;32291;52.010;4.446;2023-05-19T04:59:08;79837.94;;;-144.67;100.00
47522;BME280;32291;52.010;4.446;2023-05-19T05:00:10;79833.66;;;-144.67;100.00
47522;BME280;32291;52.010;4.446;2023-05-19T05:01:14;79833.66;;;-144.67;100.00
47522;BME280;32291;52.010;4.446;2023-05-19T05:02:16;79822.97;;;-144.67;100.00
47522;BME280;32291;52.010;4.446;2023-05-19T05:03:18;79820.81;;;-144.67;100.00
47522;BME280;32291;52.010;4.446;2023-05-19T05:04:23;79820.81;;;-144.67;100.00
47522;BME280;32291;52.010;4.446;2023-05-19T05:05:25;79812.25;;;-144.67;100.00
47522;BME280;32291;52.010;4.446;2023-05-19T05:06:27;79803.69;;;-144.67;100.00
47522;BME280;32291;52.010;4.446;2023-05-19T05:07:29;79805.81;;;-144.67;100.00
47522;BME280;32291;52.010;4.446;2023-05-19T05:08:31;79801.53;;;-144.67;100.00
47522;BME280;32291;52.010;4.446;2023-05-19T05:09:33;79805.81;;;-144.67;100.00
47522;BME280;32291;52.010;4.446;2023-05-19T05:10:35;79805.81;;;-144.67;100.00
47522;BME280;32291;52.010;4.446;2023-05-19T05:11:36;79792.97;;;-144.67;100.00
47522;BME280;32291;52.010;4.446;2023-05-19T05:12:38;79790.81;;;-144.67;100.00
47522;BME280;32291;52.010;4.446;2023-05-19T05:13:40;79790.81;;;-144.67;100.00
47522;BME280;32291;52.010;4.446;2023-05-19T05:14:43;79784.41;;;-144.67;100.00
47522;BME280;32291;52.010;4.446;2023-05-19T05:15:45;79780.13;;;-144.67;100.00
47522;BME280;32291;52.010;4.446;2023-05-19T05:16:48;79777.97;;;-144.67;100.00
47522;BME280;32291;52.010;4.446;2023-05-19T05:17:50;79760.84;;;-144.67;100.00
47522;BME280;32291;52.010;4.446;2023-05-19T05:18:53;79750.13;;;-144.67;100.00
47522;BME280;32291;52.010;4.446;2023-05-19T05:19:56;79743.72;;;-144.67;100.00
47522;BME280;32291;52.010;4.446;2023-05-19T05:20:58;79739.41;;;-144.67;100.00
47522;BME280;32291;52.010;4.446;2023-05-19T05:22:00;79733.00;;;-144.67;100.00
47522;BME280;32291;52.010;4.446;2023-05-19T05:23:02;79724.44;;;-144.67;100.00
47522;BME280;32291;52.010;4.446;2023-05-19T05:24:04;79720.16;;;-144.67;100.00
47522;BME280;32291;52.010;4.446;2023-05-19T05:25:07;79713.72;;;-144.67;100.00
47522;BME280;32291;52.010;4.446;2023-05-19T05:26:18;79700.88;;;-144.67;100.00
47522;BME280;32291;52.010;4.446;2023-05-19T05:27:22;79694.44;;;-144.67;100.00
47522;BME280;32291;52.010;4.446;2023-05-19T05:28:24;79690.16;;;-144.67;100.00
47522;BME280;32291;52.010;4.446;2023-05-19T05:29:25;79696.59;;;-144.67;100.00
47522;BME280;32291;52.010;4.446;2023-05-19T05:30:27;79688.00;;;-144.67;100.00
47522;BME280;32291;52.010;4.446;2023-05-19T05:31:29;79679.44;;;-144.67;100.00
47522;BME280;32291;52.010;4.446;2023-05-19T05:32:31;79677.31;;;-144.67;100.00
47522;BME280;32291;52.010;4.446;2023-05-19T05:33:33;79675.16;;;-144.67;100.00
47522;BME280;32291;52.010;4.446;2023-05-19T05:34:35;79675.16;;;-144.67;100.00
47522;BME280;32291;52.010;4.446;2023-05-19T05:35:38;79675.16;;;-144.67;100.00
47522;BME280;32291;52.010;4.446;2023-05-19T05:36:40;79662.31;;;-144.67;100.00